createdAt,value
2022-12-13T00:00:27.708Z,-6.21
2022-12-13T00:01:27.901Z,-6.1
2022-12-13T00:02:28.270Z,-6.21
2022-12-13T00:03:29.008Z,-6.13
2022-12-13T00:04:30.229Z,-6.13
2022-12-13T00:05:30.879Z,-6.16
2022-12-13T00:06:31.441Z,-6.18
2022-12-13T00:07:31.636Z,-6.28
2022-12-13T00:08:32.460Z,-6.21
2022-12-13T00:09:33.379Z,-6.16
2022-12-13T00:10:33.597Z,-6.23
2022-12-13T00:11:33.508Z,-6.26
2022-12-13T00:12:34.403Z,-6.28
2022-12-13T00:13:35.596Z,-6.23
2022-12-13T00:14:35.954Z,-6.27
2022-12-13T00:15:36.433Z,-6.24
2022-12-13T00:16:36.799Z,-6.21
2022-12-13T00:17:36.767Z,-6.24
2022-12-13T00:18:38.424Z,-6.28
2022-12-13T00:19:38.373Z,-6.26
2022-12-13T00:20:39.284Z,-6.34
2022-12-13T00:21:39.233Z,-6.27
2022-12-13T00:22:40.141Z,-6.34
2022-12-13T00:23:40.779Z,-6.38
2022-12-13T00:24:46.505Z,-6.34
2022-12-13T00:25:42.424Z,-6.31
2022-12-13T00:26:43.149Z,-6.41
2022-12-13T00:27:44.038Z,-6.42
2022-12-13T00:28:44.376Z,-6.45
2022-12-13T00:29:45.352Z,-6.36
2022-12-13T00:30:46.665Z,-6.31
2022-12-13T00:32:06.988Z,-6.42
2022-12-13T00:32:47.823Z,-6.41
2022-12-13T00:33:49.020Z,-6.41
2022-12-13T00:34:49.508Z,-6.45
2022-12-13T00:35:50.135Z,-6.46
2022-12-13T00:36:50.813Z,-6.42
2022-12-13T00:37:51.524Z,-6.52
2022-12-13T00:38:52.014Z,-6.46
2022-12-13T00:39:52.392Z,-6.44
2022-12-13T00:40:53.323Z,-6.44
2022-12-13T00:41:53.960Z,-6.46
2022-12-13T00:42:54.571Z,-6.46
2022-12-13T00:43:55.488Z,-6.6
2022-12-13T00:44:56.987Z,-6.6
2022-12-13T00:45:56.283Z,-6.51
2022-12-13T00:46:56.856Z,-6.52
2022-12-13T00:47:57.488Z,-6.54
2022-12-13T00:48:58.671Z,-6.48
2022-12-13T00:49:59.353Z,-6.52
2022-12-13T00:50:59.692Z,-6.48
2022-12-13T00:52:00.616Z,-6.52
2022-12-13T00:53:00.531Z,-6.49
2022-12-13T00:54:01.736Z,-6.6
2022-12-13T00:55:02.365Z,-6.54
2022-12-13T00:56:02.801Z,-6.45
2022-12-13T00:57:03.972Z,-6.52
2022-12-13T00:58:03.887Z,-6.63
2022-12-13T00:59:04.817Z,-6.54
2022-12-13T01:00:05.116Z,-6.54
2022-12-13T01:01:06.237Z,-6.54
2022-12-13T01:02:06.513Z,-6.6
2022-12-13T01:03:07.320Z,-6.52
2022-12-13T01:04:07.677Z,-6.6
2022-12-13T01:05:07.573Z,-6.56
2022-12-13T01:06:20.739Z,-6.66
2022-12-13T01:07:09.016Z,-6.64
2022-12-13T01:08:10.149Z,-6.6
2022-12-13T01:09:10.897Z,-6.63
2022-12-13T01:10:12.423Z,-6.6
2022-12-13T01:11:12.357Z,-6.58
2022-12-13T01:12:13.872Z,-6.66
2022-12-13T01:13:14.492Z,-6.63
2022-12-13T01:14:15.688Z,-6.73
2022-12-13T01:15:16.677Z,-6.68
2022-12-13T01:16:17.221Z,-6.7
2022-12-13T01:17:17.398Z,-6.71
2022-12-13T01:18:18.004Z,-6.79
2022-12-13T01:19:18.912Z,-6.78
2022-12-13T01:20:20.314Z,-6.82
2022-12-13T01:21:22.447Z,-6.88
2022-12-13T01:22:20.897Z,-6.95
2022-12-13T01:23:21.395Z,-6.91
2022-12-13T01:24:21.295Z,-6.88
2022-12-13T01:25:22.776Z,-6.85
2022-12-13T01:26:22.995Z,-6.85
2022-12-13T01:27:23.419Z,-6.89
2022-12-13T01:28:24.630Z,-6.86
2022-12-13T01:29:26.386Z,-6.97
2022-12-13T01:30:25.206Z,-6.88
2022-12-13T01:31:27.009Z,-6.88
2022-12-13T01:32:26.623Z,-6.86
2022-12-13T01:33:27.237Z,-6.84
2022-12-13T01:34:32.225Z,-6.89
2022-12-13T01:35:29.419Z,-6.86
2022-12-13T01:36:38.766Z,-6.97
2022-12-13T01:37:37.943Z,-6.97
2022-12-13T01:38:38.464Z,-6.96
2022-12-13T01:39:38.928Z,-6.95
2022-12-13T01:40:38.976Z,-7
2022-12-13T01:41:34.961Z,-6.99
2022-12-13T01:42:36.326Z,-6.88
2022-12-13T01:43:36.811Z,-6.92
2022-12-13T01:44:36.429Z,-6.95
2022-12-13T01:45:37.072Z,-6.82
2022-12-13T01:46:37.426Z,-6.96
2022-12-13T01:47:38.159Z,-7.03
2022-12-13T01:48:39.051Z,-7.05
2022-12-13T01:49:38.951Z,-6.95
2022-12-13T01:50:39.869Z,-6.88
2022-12-13T01:51:40.152Z,-7.05
2022-12-13T01:52:40.772Z,-6.95
2022-12-13T01:53:41.278Z,-6.96
2022-12-13T01:54:47.414Z,-6.86
2022-12-13T01:55:47.663Z,-6.91
2022-12-13T01:56:43.167Z,-6.97
2022-12-13T01:57:47.793Z,-6.95
2022-12-13T01:58:43.977Z,-6.91
2022-12-13T01:59:44.591Z,-6.96
2022-12-13T02:00:46.901Z,-6.97
2022-12-13T02:01:46.338Z,-7
2022-12-13T02:02:46.481Z,-6.95
2022-12-13T02:03:47.669Z,-6.88
2022-12-13T02:04:50.025Z,-6.84
2022-12-13T02:05:48.738Z,-6.82
2022-12-13T02:06:48.616Z,-6.85
2022-12-13T02:07:49.733Z,-6.89
2022-12-13T02:08:49.823Z,-6.85
2022-12-13T02:09:57.438Z,-6.75
2022-12-13T02:10:51.693Z,-6.82
2022-12-13T02:11:51.592Z,-6.81
2022-12-13T02:12:52.222Z,-6.89
2022-12-13T02:13:53.109Z,-6.82
2022-12-13T02:14:53.739Z,-6.86
2022-12-13T02:15:54.407Z,-6.88
2022-12-13T02:16:55.387Z,-6.96
2022-12-13T02:17:56.267Z,-6.86
2022-12-13T02:19:00.883Z,-6.89
2022-12-13T02:19:58.065Z,-6.85
2022-12-13T02:20:58.675Z,-6.88
2022-12-13T02:21:59.290Z,-6.91
2022-12-13T02:23:00.473Z,-6.86
2022-12-13T02:24:09.491Z,-6.85
2022-12-13T02:25:01.178Z,-6.91
2022-12-13T02:26:02.203Z,-6.95
2022-12-13T02:27:02.088Z,-6.86
2022-12-13T02:28:32.222Z,-6.84
2022-12-13T02:29:03.268Z,-6.85
2022-12-13T02:30:03.516Z,-6.76
2022-12-13T02:31:05.198Z,-6.75
2022-12-13T02:32:06.009Z,-6.7
2022-12-13T02:33:05.900Z,-6.73
2022-12-13T02:34:06.244Z,-6.76
2022-12-13T02:35:06.587Z,-6.73
2022-12-13T02:36:07.688Z,-6.85
2022-12-13T02:37:18.564Z,-6.85
2022-12-13T02:38:08.914Z,-6.78
2022-12-13T02:39:08.886Z,-6.79
2022-12-13T02:40:09.809Z,-6.95
2022-12-13T02:41:09.756Z,-6.89
2022-12-13T02:42:22.561Z,-6.92
2022-12-13T02:43:11.182Z,-6.96
2022-12-13T02:44:28.172Z,-6.88
2022-12-13T02:45:20.951Z,-6.97
2022-12-13T02:46:13.250Z,-6.91
2022-12-13T02:47:22.709Z,-6.88
2022-12-13T02:48:14.221Z,-6.86
2022-12-13T02:49:14.830Z,-6.89
2022-12-13T02:50:15.168Z,-6.92
2022-12-13T02:51:16.074Z,-6.91
2022-12-13T02:52:23.107Z,-6.92
2022-12-13T02:53:17.000Z,-6.81
2022-12-13T02:54:16.925Z,-6.84
2022-12-13T02:55:18.718Z,-6.88
2022-12-13T02:56:18.759Z,-6.89
2022-12-13T02:57:27.094Z,-6.92
2022-12-13T02:58:20.127Z,-7.03
2022-12-13T02:59:20.332Z,-6.92
2022-12-13T03:00:20.528Z,-7.03
2022-12-13T03:01:41.252Z,-7.07
2022-12-13T03:02:37.102Z,-7.07
2022-12-13T03:03:23.977Z,-7.1
2022-12-13T03:04:29.414Z,-7.07
2022-12-13T03:05:24.298Z,-7.06
2022-12-13T03:06:34.771Z,-7.02
2022-12-13T03:07:25.729Z,-7.09
2022-12-13T03:08:26.342Z,-7.03
2022-12-13T03:09:26.952Z,-7.03
2022-12-13T03:10:27.599Z,-7
2022-12-13T03:11:28.381Z,-7.05
2022-12-13T03:12:29.010Z,-7.02
2022-12-13T03:13:30.439Z,-7.1
2022-12-13T03:14:32.078Z,-6.95
2022-12-13T03:15:30.275Z,-6.95
2022-12-13T03:16:31.864Z,-6.95
2022-12-13T03:17:31.515Z,-7.03
2022-12-13T03:18:31.781Z,-7.06
2022-12-13T03:19:32.679Z,-7.06
2022-12-13T03:20:32.866Z,-6.97
2022-12-13T03:21:34.051Z,-6.88
2022-12-13T03:22:34.275Z,-6.95
2022-12-13T03:23:34.888Z,-6.95
2022-12-13T03:24:35.805Z,-6.95
2022-12-13T03:25:38.177Z,-6.92
2022-12-13T03:26:37.097Z,-7.05
2022-12-13T03:27:37.328Z,-6.88
2022-12-13T03:28:38.023Z,-6.92
2022-12-13T03:29:37.962Z,-6.91
2022-12-13T03:30:38.575Z,-6.84
2022-12-13T03:31:39.917Z,-6.82
2022-12-13T03:32:40.201Z,-6.88
2022-12-13T03:33:40.086Z,-6.81
2022-12-13T03:35:01.091Z,-6.71
2022-12-13T03:35:51.659Z,-6.64
2022-12-13T03:36:50.851Z,-6.67
2022-12-13T03:37:51.654Z,-6.68
2022-12-13T03:38:52.365Z,-6.76
2022-12-13T03:39:52.704Z,-6.76
2022-12-13T03:40:53.219Z,-6.73
2022-12-13T03:41:53.714Z,-6.75
2022-12-13T03:42:54.209Z,-6.76
2022-12-13T03:43:54.127Z,-6.78
2022-12-13T03:44:55.313Z,-6.82
2022-12-13T03:45:55.797Z,-6.81
2022-12-13T03:47:01.045Z,-6.92
2022-12-13T03:47:56.370Z,-6.84
2022-12-13T03:48:56.620Z,-6.86
2022-12-13T03:50:27.424Z,-6.81
2022-12-13T03:50:56.890Z,-6.85
2022-12-13T03:51:57.786Z,-6.82
2022-12-13T03:52:58.266Z,-6.84
2022-12-13T03:53:58.649Z,-6.92
2022-12-13T03:55:00.155Z,-6.88
2022-12-13T03:56:01.905Z,-6.81
2022-12-13T03:57:01.902Z,-6.84
2022-12-13T03:58:08.232Z,-6.75
2022-12-13T03:59:02.944Z,-6.79
2022-12-13T04:00:03.841Z,-6.81
2022-12-13T04:01:06.784Z,-6.64
2022-12-13T04:02:05.140Z,-6.7
2022-12-13T04:03:05.625Z,-6.71
2022-12-13T04:04:06.062Z,-6.66
2022-12-13T04:05:06.740Z,-6.71
2022-12-13T04:06:07.264Z,-6.76
2022-12-13T04:07:22.820Z,-6.89
2022-12-13T04:08:22.778Z,-6.84
2022-12-13T04:09:11.273Z,-6.82
2022-12-13T04:10:31.576Z,-6.88
2022-12-13T04:11:12.062Z,-6.91
2022-12-13T04:12:12.706Z,-6.91
2022-12-13T04:13:13.907Z,-7.07
2022-12-13T04:14:23.434Z,-7.07
2022-12-13T04:15:15.242Z,-7.13
2022-12-13T04:16:15.852Z,-7.15
2022-12-13T04:17:15.910Z,-7.24
2022-12-13T04:18:16.842Z,-7.18
2022-12-13T04:19:24.149Z,-7.15
2022-12-13T04:20:17.616Z,-7.2
2022-12-13T04:21:18.792Z,-7.27
2022-12-13T04:22:25.253Z,-7.21
2022-12-13T04:23:19.157Z,-7.15
2022-12-13T04:24:19.836Z,-7.17
2022-12-13T04:25:21.334Z,-7.07
2022-12-13T04:26:20.949Z,-7.14
2022-12-13T04:27:21.869Z,-7.02
2022-12-13T04:28:28.644Z,-7.07
2022-12-13T04:29:22.659Z,-6.96
2022-12-13T04:30:22.675Z,-6.96
2022-12-13T04:31:23.610Z,-6.96
2022-12-13T04:32:32.880Z,-6.92
2022-12-13T04:33:24.097Z,-7.05
2022-12-13T04:34:27.456Z,-6.91
2022-12-13T04:35:24.767Z,-6.91
2022-12-13T04:36:37.545Z,-6.97
2022-12-13T04:37:26.153Z,-7.09
2022-12-13T04:38:26.785Z,-7.02
2022-12-13T04:39:34.925Z,-7.09
2022-12-13T04:40:29.956Z,-7.07
2022-12-13T04:41:40.096Z,-7.03
2022-12-13T04:42:31.791Z,-7.18
2022-12-13T04:43:31.713Z,-7.07
2022-12-13T04:44:38.220Z,-7.27
2022-12-13T04:45:33.023Z,-7.2
2022-12-13T04:46:33.363Z,-7.28
2022-12-13T04:47:33.846Z,-7.34
2022-12-13T04:48:36.511Z,-7.34
2022-12-13T04:49:34.755Z,-7.41
2022-12-13T04:50:34.939Z,-7.45
2022-12-13T04:51:34.827Z,-7.48
2022-12-13T04:52:35.323Z,-7.5
2022-12-13T04:53:36.802Z,-7.53
2022-12-13T04:54:42.263Z,-7.52
2022-12-13T04:55:38.448Z,-7.6
2022-12-13T04:56:39.652Z,-7.59
2022-12-13T04:57:39.575Z,-7.56
2022-12-13T04:58:40.508Z,-7.53
2022-12-13T04:59:41.315Z,-7.57
2022-12-13T05:00:44.755Z,-7.53
2022-12-13T05:01:42.275Z,-7.5
2022-12-13T05:02:43.691Z,-7.6
2022-12-13T05:03:43.790Z,-7.55
2022-12-13T05:04:43.692Z,-7.64
2022-12-13T05:05:43.868Z,-7.66
2022-12-13T05:06:44.792Z,-7.8
2022-12-13T05:07:48.206Z,-7.71
2022-12-13T05:08:45.215Z,-7.78
2022-12-13T05:09:45.194Z,-7.75
2022-12-13T05:10:46.411Z,-7.77
2022-12-13T05:11:51.900Z,-7.77
2022-12-13T05:12:46.906Z,-7.66
2022-12-13T05:13:48.103Z,-7.64
2022-12-13T05:14:48.004Z,-7.6
2022-12-13T05:15:55.401Z,-7.57
2022-12-13T05:16:49.598Z,-7.56
2022-12-13T05:17:49.767Z,-7.59
2022-12-13T05:18:50.730Z,-7.64
2022-12-13T05:19:51.018Z,-7.77
2022-12-13T05:20:51.922Z,-7.73
2022-12-13T05:21:52.404Z,-7.74
2022-12-13T05:22:52.443Z,-7.74
2022-12-13T05:23:52.929Z,-7.78
2022-12-13T05:24:53.837Z,-7.75
2022-12-13T05:25:55.647Z,-7.8
2022-12-13T05:26:54.958Z,-7.85
2022-12-13T05:28:28.870Z,-7.8
2022-12-13T05:28:56.028Z,-7.8
2022-12-13T05:30:08.314Z,-7.8
2022-12-13T05:30:57.519Z,-7.7
2022-12-13T05:31:57.920Z,-7.75
2022-12-13T05:32:58.274Z,-7.74
2022-12-13T05:34:02.121Z,-7.77
2022-12-13T05:35:00.085Z,-7.75
2022-12-13T05:36:05.306Z,-7.75
2022-12-13T05:37:01.489Z,-7.8
2022-12-13T05:38:01.100Z,-7.77
2022-12-13T05:39:01.993Z,-7.81
2022-12-13T05:40:12.170Z,-7.8
2022-12-13T05:41:13.392Z,-7.84
2022-12-13T05:42:13.576Z,-7.84
2022-12-13T05:43:43.848Z,-7.83
2022-12-13T05:44:13.608Z,-7.88
2022-12-13T05:45:15.980Z,-7.83
2022-12-13T05:46:15.670Z,-7.94
2022-12-13T05:47:15.949Z,-7.89
2022-12-13T05:48:25.111Z,-7.92
2022-12-13T05:49:17.328Z,-7.88
2022-12-13T05:50:17.022Z,-8.03
2022-12-13T05:51:18.351Z,-8.07
2022-12-13T05:52:18.826Z,-7.96
2022-12-13T05:53:36.229Z,-8.03
2022-12-13T05:54:18.923Z,-8.05
2022-12-13T05:55:21.055Z,-8.1
2022-12-13T05:56:28.590Z,-8.1
2022-12-13T05:57:20.914Z,-8.1
2022-12-13T05:58:36.367Z,-8.03
2022-12-13T05:59:22.803Z,-8.03
2022-12-13T06:00:35.543Z,-8.05
2022-12-13T06:01:23.755Z,-7.98
2022-12-13T06:02:28.240Z,-7.95
2022-12-13T06:03:25.081Z,-7.92
2022-12-13T06:04:28.982Z,-7.94
2022-12-13T06:05:24.871Z,-7.81
2022-12-13T06:06:25.502Z,-7.96
2022-12-13T06:07:26.122Z,-7.89
2022-12-13T06:08:30.871Z,-7.91
2022-12-13T06:09:27.071Z,-7.88
2022-12-13T06:10:35.526Z,-7.88
2022-12-13T06:11:44.061Z,-7.85
2022-12-13T06:12:43.825Z,-7.88
2022-12-13T06:13:44.213Z,-7.83
2022-12-13T06:14:30.859Z,-7.89
2022-12-13T06:15:45.351Z,-8.07
2022-12-13T06:16:31.530Z,-8.03
2022-12-13T06:17:31.872Z,-8.07
2022-12-13T06:18:33.178Z,-8.15
2022-12-13T06:19:33.390Z,-8.13
2022-12-13T06:20:33.251Z,-8.11
2022-12-13T06:21:46.690Z,-7.94
2022-12-13T06:22:34.657Z,-7.92
2022-12-13T06:23:34.592Z,-7.92
2022-12-13T06:24:34.926Z,-7.81
2022-12-13T06:25:37.899Z,-7.91
2022-12-13T06:26:36.934Z,-7.92
2022-12-13T06:27:37.819Z,-7.91
2022-12-13T06:28:38.767Z,-7.88
2022-12-13T06:29:40.249Z,-7.83
2022-12-13T06:30:43.197Z,-7.84
2022-12-13T06:31:41.483Z,-7.88
2022-12-13T06:32:46.817Z,-7.88
2022-12-13T06:33:42.159Z,-7.8
2022-12-13T06:34:43.380Z,-7.84
2022-12-13T06:35:47.540Z,-7.8
2022-12-13T06:36:44.747Z,-7.84
2022-12-13T06:37:44.955Z,-7.8
2022-12-13T06:38:49.148Z,-7.81
2022-12-13T06:39:46.355Z,-7.91
2022-12-13T06:40:46.650Z,-7.84
2022-12-13T06:41:46.677Z,-7.85
2022-12-13T06:42:47.611Z,-7.84
2022-12-13T06:43:48.545Z,-7.83
2022-12-13T06:44:56.463Z,-7.85
2022-12-13T06:45:49.789Z,-7.81
2022-12-13T06:46:49.926Z,-7.89
2022-12-13T06:47:50.956Z,-7.81
2022-12-13T06:48:51.433Z,-7.8
2022-12-13T06:49:52.766Z,-7.88
2022-12-13T06:50:52.415Z,-7.83
2022-12-13T06:51:53.608Z,-7.89
2022-12-13T06:52:53.809Z,-7.88
2022-12-13T06:53:54.289Z,-7.83
2022-12-13T06:55:00.197Z,-7.75
2022-12-13T06:55:55.138Z,-7.74
2022-12-13T06:56:56.051Z,-7.83
2022-12-13T06:57:57.239Z,-7.78
2022-12-13T06:59:02.485Z,-7.8
2022-12-13T06:59:57.433Z,-7.84
2022-12-13T07:01:02.240Z,-7.73
2022-12-13T07:02:04.455Z,-7.73
2022-12-13T07:02:59.724Z,-7.74
2022-12-13T07:03:59.812Z,-7.75
2022-12-13T07:05:00.998Z,-7.67
2022-12-13T07:06:04.111Z,-7.64
2022-12-13T07:07:07.204Z,-7.66
2022-12-13T07:08:03.077Z,-7.66
2022-12-13T07:09:03.368Z,-7.59
2022-12-13T07:10:04.288Z,-7.59
2022-12-13T07:11:05.471Z,-7.64
2022-12-13T07:12:06.151Z,-7.55
2022-12-13T07:13:06.069Z,-7.66
2022-12-13T07:14:06.726Z,-7.56
2022-12-13T07:15:07.067Z,-7.57
2022-12-13T07:16:07.512Z,-7.57
2022-12-13T07:17:09.848Z,-7.55
2022-12-13T07:18:08.947Z,-7.59
2022-12-13T07:19:24.961Z,-7.5
2022-12-13T07:20:10.498Z,-7.5
2022-12-13T07:21:22.630Z,-7.56
2022-12-13T07:22:12.215Z,-7.59
2022-12-13T07:23:11.846Z,-7.6
2022-12-13T07:24:13.289Z,-7.63
2022-12-13T07:25:33.354Z,-7.59
2022-12-13T07:26:13.948Z,-7.55
2022-12-13T07:27:14.438Z,-7.59
2022-12-13T07:28:14.347Z,-7.6
2022-12-13T07:29:23.176Z,-7.59
2022-12-13T07:30:16.102Z,-7.7
2022-12-13T07:31:16.648Z,-7.64
2022-12-13T07:32:16.733Z,-7.71
2022-12-13T07:33:23.224Z,-7.7
2022-12-13T07:34:21.665Z,-7.78
2022-12-13T07:35:18.605Z,-7.74
2022-12-13T07:36:18.843Z,-7.77
2022-12-13T07:37:36.178Z,-7.74
2022-12-13T07:38:20.789Z,-7.67
2022-12-13T07:39:21.702Z,-7.71
2022-12-13T07:40:22.358Z,-7.77
2022-12-13T07:41:30.269Z,-7.73
2022-12-13T07:42:23.268Z,-7.7
2022-12-13T07:43:24.997Z,-7.56
2022-12-13T07:44:25.092Z,-7.34
2022-12-13T07:45:25.317Z,-7.09
2022-12-13T07:46:39.357Z,-6.76
2022-12-13T07:47:28.554Z,-6.64
2022-12-13T07:48:26.804Z,-6.58
2022-12-13T07:49:26.851Z,-6.66
2022-12-13T07:50:38.284Z,-6.46
2022-12-13T07:51:31.494Z,-6.46
2022-12-13T07:52:31.917Z,-6.63
2022-12-13T07:53:33.915Z,-6.52
2022-12-13T07:54:33.286Z,-6.64
2022-12-13T07:55:39.162Z,-6.67
2022-12-13T07:56:34.151Z,-6.7
2022-12-13T07:57:34.580Z,-6.66
2022-12-13T07:58:35.229Z,-6.75
2022-12-13T07:59:36.448Z,-6.73
2022-12-13T08:00:39.053Z,-6.73
2022-12-13T08:01:37.678Z,-6.73
2022-12-13T08:02:38.314Z,-6.7
2022-12-13T08:03:39.225Z,-6.6
2022-12-13T08:04:43.866Z,-6.48
2022-12-13T08:05:44.866Z,-6.58
2022-12-13T08:06:40.368Z,-6.56
2022-12-13T08:07:41.004Z,-6.44
2022-12-13T08:08:41.819Z,-6.44
2022-12-13T08:09:41.505Z,-6.46
2022-12-13T08:10:42.512Z,-6.3
2022-12-13T08:11:43.216Z,-6.45
2022-12-13T08:12:43.719Z,-6.34
2022-12-13T08:13:43.914Z,-6.38
2022-12-13T08:14:44.565Z,-6.38
2022-12-13T08:15:45.334Z,-6.34
2022-12-13T08:16:45.284Z,-6.27
2022-12-13T08:17:46.651Z,-6.26
2022-12-13T08:18:45.848Z,-6.23
2022-12-13T08:19:47.418Z,-6.2
2022-12-13T08:20:47.081Z,-6.18
2022-12-13T08:22:14.712Z,-6.07
2022-12-13T08:23:08.496Z,-6
2022-12-13T08:24:03.934Z,-6
2022-12-13T08:25:04.379Z,-5.92
2022-12-13T08:26:05.664Z,-5.85
2022-12-13T08:27:05.144Z,-5.85
2022-12-13T08:28:08.067Z,-5.74
2022-12-13T08:29:05.412Z,-5.92
2022-12-13T08:30:06.025Z,-5.89
2022-12-13T08:31:06.520Z,-5.89
2022-12-13T08:32:07.565Z,-5.92
2022-12-13T08:33:11.410Z,-5.85
2022-12-13T08:34:07.857Z,-5.92
2022-12-13T08:35:08.187Z,-5.91
2022-12-13T08:36:09.145Z,-5.87
2022-12-13T08:37:10.619Z,-5.91
2022-12-13T08:38:10.611Z,-5.87
2022-12-13T08:39:10.547Z,-5.91
2022-12-13T08:40:10.764Z,-5.85
2022-12-13T08:41:11.666Z,-5.76
2022-12-13T08:42:22.603Z,-5.82
2022-12-13T08:43:12.812Z,-5.76
2022-12-13T08:44:13.479Z,-5.68
2022-12-13T08:45:14.118Z,-5.66
2022-12-13T08:46:14.426Z,-5.67
2022-12-13T08:47:26.712Z,-5.53
2022-12-13T08:48:14.691Z,-5.53
2022-12-13T08:49:15.885Z,-5.55
2022-12-13T08:50:16.292Z,-5.5
2022-12-13T08:51:28.344Z,-5.41
2022-12-13T08:52:19.130Z,-5.38
2022-12-13T08:53:41.687Z,-5.3
2022-12-13T08:54:37.058Z,-5.2
2022-12-13T08:55:32.632Z,-5.13
2022-12-13T08:56:20.645Z,-5.02
2022-12-13T08:57:21.267Z,-4.94
2022-12-13T08:58:22.192Z,-4.83
2022-12-13T08:59:23.105Z,-4.91
2022-12-13T09:00:23.435Z,-4.81
2022-12-13T09:01:23.925Z,-4.81
2022-12-13T09:02:24.472Z,-4.76
2022-12-13T09:03:25.455Z,-4.77
2022-12-13T09:04:38.033Z,-4.73
2022-12-13T09:05:40.608Z,-4.74
2022-12-13T09:06:26.955Z,-4.65
2022-12-13T09:07:28.483Z,-4.59
2022-12-13T09:08:35.599Z,-4.41
2022-12-13T09:09:29.476Z,-4.34
2022-12-13T09:10:38.956Z,-4.34
2022-12-13T09:11:44.188Z,-4.24
2022-12-13T09:12:42.270Z,-4.17
2022-12-13T09:13:44.013Z,-4.13
2022-12-13T09:14:46.353Z,-4.08
2022-12-13T09:15:46.804Z,-4.06
2022-12-13T09:16:51.785Z,-4.01
2022-12-13T09:17:43.280Z,-3.96
2022-12-13T09:18:42.343Z,-3.98
2022-12-13T09:19:43.528Z,-4.02
2022-12-13T09:20:46.893Z,-4.02
2022-12-13T09:21:48.761Z,-4.05
2022-12-13T09:22:52.146Z,-4.01
2022-12-13T09:23:52.579Z,-4.13
2022-12-13T09:25:03.228Z,-4.22
2022-12-13T09:26:06.663Z,-4.27
2022-12-13T09:27:10.323Z,-4.06
2022-12-13T09:27:55.663Z,-4.04
2022-12-13T09:28:55.571Z,-4.08
2022-12-13T09:29:56.414Z,-4.02
2022-12-13T09:30:56.685Z,-3.98
2022-12-13T09:31:59.305Z,-3.95
2022-12-13T09:32:58.284Z,-3.75
2022-12-13T09:33:58.965Z,-3.44
2022-12-13T09:35:00.142Z,-3.2
2022-12-13T09:36:02.379Z,-2.99
2022-12-13T09:37:07.496Z,-2.69
2022-12-13T09:38:01.383Z,-2.75
2022-12-13T09:39:02.957Z,-2.61
2022-12-13T09:40:25.522Z,-2.29
2022-12-13T09:41:10.775Z,-2.29
2022-12-13T09:42:11.261Z,-2.22
2022-12-13T09:43:48.817Z,-2.22
2022-12-13T09:45:04.262Z,-2.34
2022-12-13T09:45:43.522Z,-2.33
2022-12-13T09:46:50.217Z,-2.37
2022-12-13T09:47:48.075Z,-2.37
2022-12-13T09:48:48.910Z,-2.34
2022-12-13T09:49:41.596Z,-2.47
2022-12-13T09:51:16.813Z,-2.4
2022-12-13T09:52:33.890Z,-2.48
2022-12-13T09:53:34.568Z,-2.61
2022-12-13T09:54:24.055Z,-2.65
2022-12-13T09:55:25.128Z,-2.57
2022-12-13T09:56:25.625Z,-2.61
2022-12-13T09:57:40.309Z,-2.55
2022-12-13T09:58:27.932Z,-2.68
2022-12-13T09:59:27.531Z,-2.61
2022-12-13T10:00:28.169Z,-2.65
2022-12-13T10:01:29.657Z,-2.65
2022-12-13T10:02:29.953Z,-2.68
2022-12-13T10:03:31.247Z,-2.57
2022-12-13T10:04:31.244Z,-2.45
2022-12-13T10:05:42.923Z,-2.2
2022-12-13T10:06:33.184Z,-2.08
2022-12-13T10:07:33.671Z,-1.93
2022-12-13T10:08:33.799Z,-1.74
2022-12-13T10:09:34.720Z,-1.53
2022-12-13T10:10:35.915Z,-1.36
2022-12-13T10:11:38.696Z,-1.29
2022-12-13T10:12:36.953Z,-1.19
2022-12-13T10:13:37.177Z,-1.06
2022-12-13T10:14:37.924Z,-1.01
2022-12-13T10:15:37.910Z,-0.77
2022-12-13T10:16:42.711Z,-0.38
2022-12-13T10:17:55.033Z,0
2022-12-13T10:18:39.653Z,0.27
2022-12-13T10:19:39.820Z,0.48
2022-12-13T10:20:40.316Z,0.63
2022-12-13T10:21:41.346Z,0.85
2022-12-13T10:22:41.553Z,0.96
2022-12-13T10:24:37.766Z,1.09
2022-12-13T10:25:26.756Z,1.07
2022-12-13T10:26:29.736Z,0.94
2022-12-13T10:27:28.371Z,0.95
2022-12-13T10:28:28.588Z,0.94
2022-12-13T10:29:30.492Z,0.91
2022-12-13T10:30:34.499Z,0.82
2022-12-13T10:31:30.761Z,0.76
2022-12-13T10:32:38.127Z,0.7
2022-12-13T10:33:32.419Z,0.73
2022-12-13T10:34:32.052Z,0.74
2022-12-13T10:35:32.464Z,0.67
2022-12-13T10:36:33.388Z,0.73
2022-12-13T10:37:33.670Z,0.86
2022-12-13T10:38:37.867Z,1.04
2022-12-13T10:39:34.138Z,1.09
2022-12-13T10:40:38.517Z,1.09
2022-12-13T10:41:35.041Z,0.99
2022-12-13T10:42:39.898Z,0.82
2022-12-13T10:43:38.247Z,0.73
2022-12-13T10:44:36.187Z,0.58
2022-12-13T10:45:36.522Z,0.63
2022-12-13T10:46:44.493Z,0.78
2022-12-13T10:47:38.995Z,1.03
2022-12-13T10:48:44.980Z,1.31
2022-12-13T10:49:39.905Z,1.45
2022-12-13T10:50:40.144Z,1.39
2022-12-13T10:51:40.182Z,1.34
2022-12-13T10:52:49.401Z,1.34
2022-12-13T10:53:48.421Z,1.4
2022-12-13T10:54:49.129Z,1.48
2022-12-13T10:56:02.911Z,1.64
2022-12-13T10:57:02.270Z,1.68
2022-12-13T10:58:02.475Z,1.81
2022-12-13T10:59:03.867Z,1.95
2022-12-13T11:00:03.975Z,2.15
2022-12-13T11:01:04.988Z,2.16
2022-12-13T11:02:04.967Z,2.15
2022-12-13T11:03:05.698Z,2.12
2022-12-13T11:04:08.568Z,1.93
2022-12-13T11:05:11.902Z,2.07
2022-12-13T11:06:07.807Z,1.98
2022-12-13T11:07:08.752Z,1.78
2022-12-13T11:08:09.007Z,1.6
2022-12-13T11:09:23.635Z,1.6
2022-12-13T11:10:15.326Z,1.64
2022-12-13T11:11:10.970Z,1.6
2022-12-13T11:12:11.215Z,1.58
2022-12-13T11:13:11.836Z,1.6
2022-12-13T11:14:12.670Z,1.52
2022-12-13T11:15:12.936Z,1.56
2022-12-13T11:16:13.368Z,1.6
2022-12-13T11:17:14.048Z,1.61
2022-12-13T11:18:14.882Z,1.76
2022-12-13T11:19:15.359Z,1.79
2022-12-13T11:20:15.772Z,1.82
2022-12-13T11:21:16.686Z,1.97
2022-12-13T11:22:16.907Z,1.95
2022-12-13T11:23:17.488Z,2.05
2022-12-13T11:24:23.546Z,2.25
2022-12-13T11:25:18.750Z,2.34
2022-12-13T11:26:25.184Z,2.36
2022-12-13T11:27:19.828Z,2.33
2022-12-13T11:28:32.055Z,2.22
2022-12-13T11:29:20.517Z,2.1
2022-12-13T11:30:21.505Z,1.82
2022-12-13T11:31:22.600Z,1.82
2022-12-13T11:32:28.657Z,1.88
2022-12-13T11:33:23.161Z,1.84
2022-12-13T11:34:23.842Z,1.75
2022-12-13T11:35:24.138Z,1.56
2022-12-13T11:36:24.491Z,1.3
2022-12-13T11:37:25.006Z,1.2
2022-12-13T11:38:26.449Z,1.04
2022-12-13T11:39:25.954Z,1
2022-12-13T11:40:27.169Z,1.02
2022-12-13T11:41:37.393Z,1.04
2022-12-13T11:42:28.340Z,1.06
2022-12-13T11:43:28.440Z,1.12
2022-12-13T11:44:29.359Z,0.89
2022-12-13T11:45:30.678Z,0.78
2022-12-13T11:46:30.617Z,0.71
2022-12-13T11:47:31.921Z,0.74
2022-12-13T11:48:32.668Z,0.78
2022-12-13T11:49:33.162Z,0.78
2022-12-13T11:50:39.361Z,0.95
2022-12-13T11:51:34.569Z,0.88
2022-12-13T11:52:35.590Z,0.81
2022-12-13T11:53:36.232Z,0.78
2022-12-13T11:54:35.926Z,0.78
2022-12-13T11:55:39.320Z,0.77
2022-12-13T11:56:39.293Z,0.84
2022-12-13T11:57:38.797Z,0.88
2022-12-13T11:59:24.230Z,0.85
2022-12-13T11:59:52.226Z,0.73
2022-12-13T12:00:53.019Z,0.61
2022-12-13T12:02:05.713Z,0.47
2022-12-13T12:02:54.334Z,0.27
2022-12-13T12:03:55.106Z,0.15
2022-12-13T12:05:01.587Z,0.05
2022-12-13T12:06:02.006Z,-0.03
2022-12-13T12:06:56.424Z,-0.13
2022-12-13T12:08:38.501Z,-0.17
2022-12-13T12:08:58.575Z,-0.27
2022-12-13T12:09:58.906Z,-0.36
2022-12-13T12:11:01.883Z,-0.38
2022-12-13T12:12:00.137Z,-0.46
2022-12-13T12:13:01.353Z,-0.46
2022-12-13T12:14:00.973Z,-0.44
2022-12-13T12:15:27.517Z,-0.42
2022-12-13T12:16:02.329Z,-0.38
2022-12-13T12:17:02.172Z,-0.3
2022-12-13T12:18:02.108Z,-0.24
2022-12-13T12:19:07.725Z,-0.17
2022-12-13T12:20:04.168Z,-0.31
2022-12-13T12:21:04.624Z,-0.2
2022-12-13T12:22:21.193Z,-0.1
2022-12-13T12:23:04.885Z,-0.05
2022-12-13T12:24:05.873Z,-0.05
2022-12-13T12:25:06.130Z,-0.02
2022-12-13T12:26:06.351Z,0
2022-12-13T12:27:07.092Z,0.05
2022-12-13T12:28:07.873Z,-0.03
2022-12-13T12:29:12.480Z,0
2022-12-13T12:30:09.435Z,0
2022-12-13T12:31:10.090Z,-0.1
2022-12-13T12:32:10.540Z,-0.26
2022-12-13T12:33:10.781Z,-0.21
2022-12-13T12:34:11.973Z,-0.26
2022-12-13T12:35:12.563Z,-0.31
2022-12-13T12:36:13.756Z,-0.35
2022-12-13T12:37:14.351Z,-0.24
2022-12-13T12:38:14.276Z,-0.28
2022-12-13T12:39:15.118Z,-0.38
2022-12-13T12:40:15.474Z,-0.38
2022-12-13T12:41:23.482Z,-0.53
2022-12-13T12:42:16.774Z,-0.42
2022-12-13T12:43:21.733Z,-0.48
2022-12-13T12:44:17.615Z,-0.51
2022-12-13T12:45:57.084Z,-0.67
2022-12-13T12:46:18.865Z,-0.69
2022-12-13T12:49:05.713Z,-0.51
2022-12-13T12:49:24.427Z,-0.41
2022-12-13T12:50:24.475Z,-0.39
2022-12-13T12:51:25.674Z,-0.28
2022-12-13T12:52:25.619Z,-0.26
2022-12-13T12:53:26.826Z,-0.3
2022-12-13T12:54:32.980Z,-0.21
2022-12-13T12:55:27.279Z,-0.35
2022-12-13T12:56:27.948Z,-0.27
2022-12-13T12:57:29.171Z,-0.35
2022-12-13T12:58:30.345Z,-0.31
2022-12-13T12:59:29.968Z,-0.18
2022-12-13T13:00:31.178Z,-0.18
2022-12-13T13:01:43.501Z,-0.07
2022-12-13T13:02:32.528Z,-0.1
2022-12-13T13:03:34.617Z,-0.3
2022-12-13T13:04:33.041Z,-0.27
2022-12-13T13:05:33.995Z,-0.24
2022-12-13T13:06:34.948Z,-0.27
2022-12-13T13:07:40.471Z,-0.24
2022-12-13T13:08:35.221Z,-0.23
2022-12-13T13:09:36.305Z,-0.31
2022-12-13T13:10:36.241Z,-0.26
2022-12-13T13:11:43.740Z,-0.38